createdAt,value
2018-06-03T00:00:14.780Z,0
2018-06-03T00:01:15.009Z,0
2018-06-03T00:02:14.752Z,0
2018-06-03T00:03:14.728Z,0
2018-06-03T00:04:14.715Z,0
2018-06-03T00:05:14.182Z,0
2018-06-03T00:06:14.960Z,0
2018-06-03T00:07:14.689Z,0
2018-06-03T00:08:14.690Z,0
2018-06-03T00:09:14.930Z,0
2018-06-03T00:10:14.396Z,0
2018-06-03T00:11:14.132Z,0
2018-06-03T00:12:14.636Z,0
2018-06-03T00:13:15.062Z,0
2018-06-03T00:14:14.615Z,0
2018-06-03T00:15:14.663Z,0
2018-06-03T00:16:14.333Z,0
2018-06-03T00:17:14.866Z,0
2018-06-03T00:18:14.570Z,0
2018-06-03T00:19:14.849Z,0
2018-06-03T00:20:14.577Z,0
2018-06-03T00:21:14.295Z,0
2018-06-03T00:22:14.298Z,0
2018-06-03T00:23:14.806Z,0
2018-06-03T00:24:14.530Z,0
2018-06-03T00:25:14.509Z,0
2018-06-03T00:26:14.572Z,0
2018-06-03T00:27:14.774Z,0
2018-06-03T00:28:14.806Z,0
2018-06-03T00:29:14.730Z,0
2018-06-03T00:30:14.784Z,0
2018-06-03T00:31:14.716Z,0
2018-06-03T00:32:14.433Z,0
2018-06-03T00:33:14.707Z,0
2018-06-03T00:34:14.151Z,0
2018-06-03T00:35:14.405Z,0
2018-06-03T00:36:14.392Z,0
2018-06-03T00:37:14.118Z,0
2018-06-03T00:38:14.638Z,0
2018-06-03T00:39:14.639Z,0
2018-06-03T00:40:14.397Z,0
2018-06-03T00:41:14.075Z,0
2018-06-03T00:42:14.337Z,0
2018-06-03T00:43:13.792Z,0
2018-06-03T00:44:14.311Z,0
2018-06-03T00:45:14.322Z,0
2018-06-03T00:46:14.303Z,0
2018-06-03T00:47:14.281Z,0
2018-06-03T00:48:14.535Z,0
2018-06-03T00:49:13.994Z,0
2018-06-03T00:50:14.536Z,0
2018-06-03T00:51:14.241Z,0
2018-06-03T00:52:14.511Z,0
2018-06-03T00:53:14.542Z,0
2018-06-03T00:54:14.208Z,0
2018-06-03T00:55:13.664Z,0
2018-06-03T00:56:13.925Z,0
2018-06-03T00:57:14.437Z,0
2018-06-03T00:58:13.905Z,0
2018-06-03T00:59:14.414Z,0
2018-06-03T01:00:13.900Z,0
2018-06-03T01:01:14.408Z,0
2018-06-03T01:02:14.392Z,0
2018-06-03T01:03:13.846Z,0
2018-06-03T01:04:14.102Z,0
2018-06-03T01:05:14.351Z,0
2018-06-03T01:06:13.554Z,0
2018-06-03T01:07:13.799Z,0
2018-06-03T01:08:14.058Z,0
2018-06-03T01:09:14.315Z,0
2018-06-03T01:10:13.512Z,0
2018-06-03T01:11:14.286Z,0
2018-06-03T01:12:14.031Z,0
2018-06-03T01:13:14.009Z,0
2018-06-03T01:14:14.258Z,0
2018-06-03T01:15:13.720Z,0
2018-06-03T01:16:13.703Z,0
2018-06-03T01:17:13.693Z,0
2018-06-03T01:18:14.220Z,0
2018-06-03T01:19:14.220Z,0
2018-06-03T01:20:13.929Z,0
2018-06-03T01:21:13.913Z,0
2018-06-03T01:22:13.908Z,0
2018-06-03T01:23:13.630Z,0
2018-06-03T01:24:13.623Z,0
2018-06-03T01:25:13.615Z,0
2018-06-03T01:26:13.602Z,0
2018-06-03T01:27:13.853Z,0
2018-06-03T01:28:14.124Z,0
2018-06-03T01:29:13.566Z,0
2018-06-03T01:30:13.819Z,0
2018-06-03T01:31:13.808Z,0
2018-06-03T01:32:14.065Z,0
2018-06-03T01:33:13.796Z,0
2018-06-03T01:34:14.049Z,0
2018-06-03T01:35:14.039Z,0
2018-06-03T01:36:13.752Z,0
2018-06-03T01:37:14.005Z,0
2018-06-03T01:38:13.997Z,0
2018-06-03T01:39:13.455Z,0
2018-06-03T01:40:13.705Z,0
2018-06-03T01:41:13.702Z,0
2018-06-03T01:42:13.951Z,0
2018-06-03T01:43:13.669Z,0
2018-06-03T01:44:13.665Z,0
2018-06-03T01:45:13.403Z,0
2018-06-03T01:46:13.639Z,0
2018-06-03T01:47:13.638Z,0
2018-06-03T01:48:13.360Z,0
2018-06-03T01:49:13.346Z,0
2018-06-03T01:50:13.594Z,0
2018-06-03T01:51:13.856Z,0
2018-06-03T01:52:13.314Z,0
2018-06-03T01:53:13.566Z,0
2018-06-03T01:54:13.558Z,0
2018-06-03T01:55:13.553Z,0
2018-06-03T01:56:13.267Z,0
2018-06-03T01:57:13.790Z,0
2018-06-03T01:58:12.978Z,0
2018-06-03T01:59:13.255Z,0
2018-06-03T02:00:13.220Z,0
2018-06-03T02:01:13.482Z,0
2018-06-03T02:02:13.531Z,0
2018-06-03T02:03:13.459Z,0
2018-06-03T02:04:13.233Z,0
2018-06-03T02:05:13.166Z,0
2018-06-03T02:06:13.160Z,0
2018-06-03T02:07:13.161Z,0
2018-06-03T02:08:13.404Z,0
2018-06-03T02:09:13.395Z,0
2018-06-03T02:10:13.655Z,0
2018-06-03T02:11:13.101Z,0
2018-06-03T02:12:13.624Z,0
2018-06-03T02:13:13.079Z,0
2018-06-03T02:14:13.339Z,0
2018-06-03T02:15:13.328Z,0
2018-06-03T02:16:13.050Z,0
2018-06-03T02:17:12.785Z,0
2018-06-03T02:18:13.551Z,0
2018-06-03T02:19:13.287Z,0
2018-06-03T02:20:13.277Z,0
2018-06-03T02:21:13.265Z,0
2018-06-03T02:22:13.504Z,0
2018-06-03T02:23:12.980Z,0
2018-06-03T02:24:13.240Z,0
2018-06-03T02:25:13.483Z,0
2018-06-03T02:26:12.943Z,0
2018-06-03T02:27:13.193Z,0
2018-06-03T02:28:13.179Z,0
2018-06-03T02:29:13.447Z,0
2018-06-03T02:30:13.430Z,0
2018-06-03T02:31:13.159Z,0
2018-06-03T02:32:13.141Z,0
2018-06-03T02:33:12.870Z,0
2018-06-03T02:34:12.869Z,0
2018-06-03T02:35:13.441Z,0
2018-06-03T02:36:13.357Z,0
2018-06-03T02:37:12.818Z,0
2018-06-03T02:38:13.067Z,0
2018-06-03T02:39:13.076Z,0
2018-06-03T02:40:12.786Z,0
2018-06-03T02:41:13.247Z,4
2018-06-03T02:42:13.027Z,4
2018-06-03T02:43:12.748Z,0
2018-06-03T02:44:12.746Z,4
2018-06-03T02:45:13.000Z,4
2018-06-03T02:46:12.984Z,4
2018-06-03T02:47:12.970Z,4
2018-06-03T02:48:12.969Z,4
2018-06-03T02:49:12.683Z,8
2018-06-03T02:50:12.974Z,8
2018-06-03T02:51:12.974Z,8
2018-06-03T02:52:13.186Z,8
2018-06-03T02:53:12.915Z,12
2018-06-03T02:54:13.157Z,12
2018-06-03T02:55:12.884Z,12
2018-06-03T02:56:12.339Z,16
2018-06-03T02:57:12.612Z,16
2018-06-03T02:58:12.592Z,16
2018-06-03T02:59:12.573Z,20
2018-06-03T03:00:12.565Z,20
2018-06-03T03:01:12.816Z,24
2018-06-03T03:02:12.800Z,28
2018-06-03T03:03:12.792Z,32
2018-06-03T03:04:12.788Z,32
2018-06-03T03:05:12.774Z,40
2018-06-03T03:06:13.041Z,40
2018-06-03T03:07:13.015Z,44
2018-06-03T03:08:12.206Z,52
2018-06-03T03:09:12.731Z,52
2018-06-03T03:10:12.723Z,60
2018-06-03T03:11:12.974Z,64
2018-06-03T03:12:12.965Z,72
2018-06-03T03:13:12.680Z,80
2018-06-03T03:14:12.932Z,84
2018-06-03T03:15:12.653Z,96
2018-06-03T03:16:12.649Z,100
2018-06-03T03:17:12.903Z,108
2018-06-03T03:18:12.619Z,120
2018-06-03T03:19:12.873Z,124
2018-06-03T03:20:12.804Z,136
2018-06-03T03:21:12.587Z,144
2018-06-03T03:22:12.312Z,156
2018-06-03T03:23:12.305Z,164
2018-06-03T03:24:12.556Z,176
2018-06-03T03:25:12.282Z,184
2018-06-03T03:26:12.273Z,196
2018-06-03T03:27:12.779Z,204
2018-06-03T03:28:12.521Z,212
2018-06-03T03:29:12.503Z,224
2018-06-03T03:30:12.499Z,236
2018-06-03T03:31:12.746Z,248
2018-06-03T03:32:12.205Z,264
2018-06-03T03:33:12.456Z,276
2018-06-03T03:34:12.720Z,292
2018-06-03T03:35:12.705Z,308
2018-06-03T03:36:12.417Z,324
2018-06-03T03:37:12.412Z,336
2018-06-03T03:38:12.681Z,352
2018-06-03T03:39:12.125Z,364
2018-06-03T03:40:11.891Z,380
2018-06-03T03:41:12.641Z,396
2018-06-03T03:42:12.610Z,416
2018-06-03T03:43:12.593Z,436
2018-06-03T03:44:12.325Z,452
2018-06-03T03:45:12.312Z,472
2018-06-03T03:46:12.034Z,488
2018-06-03T03:47:12.029Z,504
2018-06-03T03:48:12.276Z,520
2018-06-03T03:49:12.265Z,536
2018-06-03T03:50:12.264Z,552
2018-06-03T03:51:11.982Z,564
2018-06-03T03:52:11.964Z,580
2018-06-03T03:53:12.230Z,600
2018-06-03T03:54:12.224Z,616
2018-06-03T03:55:12.227Z,636
2018-06-03T03:56:11.940Z,652
2018-06-03T03:57:12.438Z,668
2018-06-03T03:58:12.209Z,692
2018-06-03T03:59:11.901Z,716
2018-06-03T04:00:12.159Z,744
2018-06-03T04:01:12.404Z,772
2018-06-03T04:02:12.118Z,796
2018-06-03T04:03:12.382Z,804
2018-06-03T04:04:11.823Z,812
2018-06-03T04:05:12.090Z,816
2018-06-03T04:06:12.339Z,820
2018-06-03T04:07:11.796Z,828
2018-06-03T04:08:12.053Z,840
2018-06-03T04:09:12.042Z,852
2018-06-03T04:10:12.075Z,868
2018-06-03T04:11:11.480Z,892
2018-06-03T04:12:12.032Z,908
2018-06-03T04:13:12.375Z,940
2018-06-03T04:14:12.033Z,976
2018-06-03T04:15:11.975Z,1020
2018-06-03T04:16:12.527Z,1064
2018-06-03T04:17:11.942Z,1104
2018-06-03T04:18:11.935Z,1140
2018-06-03T04:19:11.936Z,1168
2018-06-03T04:20:12.178Z,1200
2018-06-03T04:21:26.539Z,1240
2018-06-03T04:22:11.880Z,1260
2018-06-03T04:23:11.665Z,1284
2018-06-03T04:24:11.880Z,1312
2018-06-03T04:25:11.850Z,1344
2018-06-03T04:26:11.568Z,1380
2018-06-03T04:27:12.114Z,1424
2018-06-03T04:28:11.824Z,1472
2018-06-03T04:29:11.811Z,1512
2018-06-03T04:30:11.793Z,1540
2018-06-03T04:31:11.784Z,1572
2018-06-03T04:32:11.503Z,1600
2018-06-03T04:33:12.022Z,1620
2018-06-03T04:34:11.479Z,1628
2018-06-03T04:35:11.468Z,1648
2018-06-03T04:36:11.995Z,1676
2018-06-03T04:37:11.447Z,1696
2018-06-03T04:38:11.714Z,1716
2018-06-03T04:39:11.708Z,1740
2018-06-03T04:40:11.426Z,1776
2018-06-03T04:41:11.341Z,1844
2018-06-03T04:42:11.412Z,1924
2018-06-03T04:43:11.670Z,2008
2018-06-03T04:44:11.368Z,2092
2018-06-03T04:45:11.887Z,2176
2018-06-03T04:46:11.370Z,2252
2018-06-03T04:47:11.326Z,2312
2018-06-03T04:48:11.589Z,2360
2018-06-03T04:49:11.321Z,2396
2018-06-03T04:50:11.295Z,2412
2018-06-03T04:51:11.554Z,2416
2018-06-03T04:52:11.277Z,2428
2018-06-03T04:53:11.803Z,2436
2018-06-03T04:54:11.523Z,2432
2018-06-03T04:55:11.352Z,2432
2018-06-03T04:56:11.495Z,2448
2018-06-03T04:57:10.962Z,2444
2018-06-03T04:58:11.731Z,2440
2018-06-03T04:59:11.463Z,2432
2018-06-03T05:00:11.467Z,2428
2018-06-03T05:01:11.197Z,2436
2018-06-03T05:02:11.168Z,2452
2018-06-03T05:03:11.683Z,2468
2018-06-03T05:04:11.424Z,2480
2018-06-03T05:05:11.135Z,2508
2018-06-03T05:06:11.126Z,2528
2018-06-03T05:07:11.662Z,2556
2018-06-03T05:08:11.368Z,2584
2018-06-03T05:09:10.823Z,2632
2018-06-03T05:10:10.819Z,2692
2018-06-03T05:11:11.603Z,2744
2018-06-03T05:12:11.380Z,2792
2018-06-03T05:13:11.591Z,2840
2018-06-03T05:14:11.564Z,2872
2018-06-03T05:15:11.021Z,2924
2018-06-03T05:16:11.272Z,2964
2018-06-03T05:17:11.261Z,3008
2018-06-03T05:18:11.533Z,3016
2018-06-03T05:19:11.243Z,3028
2018-06-03T05:20:11.246Z,3024
2018-06-03T05:21:10.954Z,3016
2018-06-03T05:22:11.470Z,2988
2018-06-03T05:23:11.470Z,2952
2018-06-03T05:24:11.193Z,2940
2018-06-03T05:25:11.178Z,2960
2018-06-03T05:26:11.167Z,2972
2018-06-03T05:27:11.419Z,2964
2018-06-03T05:28:11.149Z,2964
2018-06-03T05:29:10.872Z,2976
2018-06-03T05:30:10.866Z,2988
2018-06-03T05:31:11.393Z,3024
2018-06-03T05:32:11.104Z,3080
2018-06-03T05:33:11.360Z,3152
2018-06-03T05:34:11.086Z,3200
2018-06-03T05:35:11.359Z,3224
2018-06-03T05:36:10.540Z,3244
2018-06-03T05:37:10.530Z,3264
2018-06-03T05:38:11.039Z,3284
2018-06-03T05:39:11.028Z,3300
2018-06-03T05:40:11.013Z,3320
2018-06-03T05:41:11.006Z,3356
2018-06-03T05:42:11.267Z,3436
2018-06-03T05:43:11.254Z,3580
2018-06-03T05:44:10.978Z,3816
2018-06-03T05:45:10.708Z,4140
2018-06-03T05:46:10.955Z,4492
2018-06-03T05:47:10.682Z,4780
2018-06-03T05:48:10.677Z,4832
2018-06-03T05:49:10.925Z,4776
2018-06-03T05:50:10.922Z,4640
2018-06-03T05:51:10.375Z,4536
2018-06-03T05:52:11.177Z,4552
2018-06-03T05:53:10.616Z,4624
2018-06-03T05:54:11.178Z,4652
2018-06-03T05:55:10.867Z,4540
2018-06-03T05:56:10.585Z,4416
2018-06-03T05:57:10.852Z,4436
2018-06-03T05:58:11.098Z,4580
2018-06-03T05:59:10.555Z,4744
2018-06-03T06:00:10.825Z,4804
2018-06-03T06:01:11.070Z,4780
2018-06-03T06:02:10.800Z,4688
2018-06-03T06:03:10.526Z,4564
2018-06-03T06:04:10.773Z,4480
2018-06-03T06:05:10.756Z,4472
2018-06-03T06:06:10.485Z,4532
2018-06-03T06:07:10.479Z,4564
2018-06-03T06:08:11.011Z,4564
2018-06-03T06:09:10.516Z,4584
2018-06-03T06:10:10.715Z,4536
2018-06-03T06:11:10.975Z,4432
2018-06-03T06:12:10.953Z,4348
2018-06-03T06:13:10.950Z,4380
2018-06-03T06:14:10.680Z,4484
2018-06-03T06:15:10.663Z,4644
2018-06-03T06:16:10.917Z,4852
2018-06-03T06:17:10.914Z,5136
2018-06-03T06:18:10.639Z,5452
2018-06-03T06:19:10.363Z,5684
2018-06-03T06:20:11.010Z,5812
2018-06-03T06:21:10.609Z,5844
2018-06-03T06:22:10.335Z,5768
2018-06-03T06:23:10.063Z,5600
2018-06-03T06:24:10.046Z,5520
2018-06-03T06:25:10.850Z,5464
2018-06-03T06:26:10.818Z,5404
2018-06-03T06:27:10.557Z,5428
2018-06-03T06:28:10.543Z,5548
2018-06-03T06:29:10.537Z,5536
2018-06-03T06:30:10.251Z,5440
2018-06-03T06:31:09.977Z,5348
2018-06-03T06:32:10.243Z,5144
2018-06-03T06:33:09.967Z,5100
2018-06-03T06:34:10.219Z,5156
2018-06-03T06:35:10.213Z,5328
2018-06-03T06:36:10.757Z,5548
2018-06-03T06:37:10.466Z,5712
2018-06-03T06:38:10.448Z,5848
2018-06-03T06:39:10.170Z,5900
2018-06-03T06:40:09.969Z,5848
2018-06-03T06:41:10.890Z,5672
2018-06-03T06:42:10.149Z,5500
2018-06-03T06:43:10.141Z,5392
2018-06-03T06:44:10.683Z,5320
2018-06-03T06:45:10.384Z,5284
2018-06-03T06:46:10.382Z,5268
2018-06-03T06:47:10.363Z,5296
2018-06-03T06:48:10.629Z,5356
2018-06-03T06:49:10.618Z,5424
2018-06-03T06:50:10.148Z,5484
2018-06-03T06:51:10.333Z,5528
2018-06-03T06:52:10.333Z,5548
2018-06-03T06:53:10.314Z,5564
2018-06-03T06:54:10.576Z,5580
2018-06-03T06:55:10.580Z,5612
2018-06-03T06:56:10.292Z,5684
2018-06-03T06:57:10.273Z,5804
2018-06-03T06:58:10.275Z,5904
2018-06-03T06:59:09.727Z,6032
2018-06-03T07:00:10.339Z,6168
2018-06-03T07:01:10.249Z,6292
2018-06-03T07:02:09.966Z,6488
2018-06-03T07:03:10.228Z,6708
2018-06-03T07:04:10.220Z,6960
2018-06-03T07:05:10.220Z,7128
2018-06-03T07:06:09.944Z,7144
2018-06-03T07:07:09.936Z,7060
2018-06-03T07:08:10.454Z,6808
2018-06-03T07:09:09.909Z,6384
2018-06-03T07:10:09.911Z,5864
2018-06-03T07:11:10.157Z,5380
2018-06-03T07:12:09.928Z,4924
2018-06-03T07:13:10.567Z,4636
2018-06-03T07:14:10.139Z,4544
2018-06-03T07:15:10.391Z,4524
2018-06-03T07:16:10.114Z,4504
2018-06-03T07:17:10.367Z,4420
2018-06-03T07:18:09.879Z,4296
2018-06-03T07:19:10.081Z,4196
2018-06-03T07:20:10.076Z,4120
2018-06-03T07:21:09.880Z,3964
2018-06-03T07:22:10.076Z,3748
2018-06-03T07:23:09.811Z,3596
2018-06-03T07:24:09.790Z,3596
2018-06-03T07:25:10.039Z,3668
2018-06-03T07:26:10.291Z,3768
2018-06-03T07:27:10.026Z,3924
2018-06-03T07:28:09.741Z,4108
2018-06-03T07:29:10.045Z,4280
2018-06-03T07:30:09.986Z,4416
2018-06-03T07:31:09.983Z,4512
2018-06-03T07:32:10.482Z,4592
2018-06-03T07:33:09.967Z,4696
2018-06-03T07:34:09.459Z,4840
2018-06-03T07:35:09.689Z,5016
2018-06-03T07:36:09.676Z,5228
2018-06-03T07:37:09.399Z,5412
2018-06-03T07:38:10.194Z,5608
2018-06-03T07:39:10.250Z,5788
2018-06-03T07:40:09.660Z,5972
2018-06-03T07:41:09.643Z,6132
2018-06-03T07:42:09.893Z,6228
2018-06-03T07:43:10.167Z,6256
2018-06-03T07:44:09.621Z,6240
2018-06-03T07:45:09.866Z,6248
2018-06-03T07:46:09.862Z,6280
2018-06-03T07:47:09.844Z,6332
2018-06-03T07:48:09.840Z,6360
2018-06-03T07:49:10.100Z,6376
2018-06-03T07:50:10.135Z,6352
2018-06-03T07:51:09.543Z,6272
2018-06-03T07:52:09.797Z,6196
2018-06-03T07:53:09.788Z,6204
2018-06-03T07:54:10.060Z,6280
2018-06-03T07:55:09.248Z,6368
2018-06-03T07:56:09.510Z,6400
2018-06-03T07:57:10.022Z,6324
2018-06-03T07:58:09.493Z,6176
2018-06-03T07:59:09.479Z,6036
2018-06-03T08:00:09.460Z,5988
2018-06-03T08:01:09.727Z,6080
2018-06-03T08:02:09.447Z,6288
2018-06-03T08:03:09.704Z,6548
2018-06-03T08:04:09.710Z,6828
2018-06-03T08:05:09.152Z,7068
2018-06-03T08:06:09.789Z,7272
2018-06-03T08:07:09.405Z,7432
2018-06-03T08:08:09.925Z,7664
2018-06-03T08:09:09.655Z,8052
2018-06-03T08:10:09.908Z,8536
2018-06-03T08:11:09.643Z,9004
2018-06-03T08:12:09.409Z,9448
2018-06-03T08:13:09.892Z,9892
2018-06-03T08:14:09.346Z,10276
2018-06-03T08:15:09.602Z,10412
2018-06-03T08:16:09.856Z,10300
2018-06-03T08:17:09.601Z,10068
2018-06-03T08:18:09.317Z,9852
2018-06-03T08:19:09.581Z,9696
2018-06-03T08:20:09.826Z,9716
2018-06-03T08:21:09.306Z,9984
2018-06-03T08:22:09.553Z,10308
2018-06-03T08:23:09.274Z,10584
2018-06-03T08:24:09.544Z,10816
2018-06-03T08:25:08.992Z,11068
2018-06-03T08:26:09.255Z,11320
2018-06-03T08:27:09.516Z,11528
2018-06-03T08:28:08.966Z,11840
2018-06-03T08:29:08.959Z,12104
2018-06-03T08:30:09.767Z,12452
2018-06-03T08:31:09.215Z,12664
2018-06-03T08:32:09.740Z,12848
2018-06-03T08:33:09.455Z,13164
2018-06-03T08:34:09.190Z,13708
2018-06-03T08:35:09.447Z,14780
2018-06-03T08:36:08.900Z,14232
2018-06-03T08:37:09.451Z,14208
2018-06-03T08:38:09.176Z,13888
2018-06-03T08:39:08.897Z,14852
2018-06-03T08:40:09.443Z,13064
2018-06-03T08:41:09.667Z,12868
2018-06-03T08:42:09.391Z,12284
2018-06-03T08:43:09.149Z,11628
2018-06-03T08:44:09.113Z,11500
2018-06-03T08:45:09.368Z,11724
2018-06-03T08:46:09.362Z,12316
2018-06-03T08:47:09.109Z,13284
2018-06-03T08:48:09.637Z,13940
2018-06-03T08:49:09.381Z,13668
2018-06-03T08:50:09.599Z,13764
2018-06-03T08:51:09.066Z,13272
2018-06-03T08:52:09.148Z,11684
2018-06-03T08:53:09.047Z,11132
2018-06-03T08:54:09.576Z,11824
2018-06-03T08:55:08.775Z,12416
2018-06-03T08:56:09.029Z,12820
2018-06-03T08:57:09.306Z,13392
2018-06-03T08:58:09.561Z,13420
2018-06-03T08:59:08.755Z,12520
2018-06-03T09:00:09.274Z,11500
2018-06-03T09:01:09.004Z,9660
2018-06-03T09:02:09.536Z,8724
2018-06-03T09:03:09.519Z,8280
2018-06-03T09:04:09.253Z,8112
2018-06-03T09:05:08.980Z,8132
2018-06-03T09:06:09.236Z,8344
2018-06-03T09:07:09.236Z,8824
2018-06-03T09:08:09.483Z,9640
2018-06-03T09:09:09.224Z,10576
2018-06-03T09:10:08.946Z,11524
2018-06-03T09:11:09.221Z,12544
2018-06-03T09:12:09.195Z,13376
2018-06-03T09:13:09.025Z,13848
2018-06-03T09:14:09.183Z,14028
2018-06-03T09:15:09.184Z,13740
2018-06-03T09:16:08.920Z,14104
2018-06-03T09:17:08.961Z,15104
2018-06-03T09:18:09.170Z,17696
2018-06-03T09:19:08.904Z,20320
2018-06-03T09:20:09.420Z,27360
2018-06-03T09:21:08.885Z,18560
2018-06-03T09:22:08.878Z,17728
2018-06-03T09:23:08.868Z,19488
2018-06-03T09:24:09.134Z,23232
2018-06-03T09:25:09.183Z,12272
2018-06-03T09:26:09.386Z,10316
2018-06-03T09:27:08.904Z,9324
2018-06-03T09:28:09.366Z,8644
2018-06-03T09:29:09.096Z,8476
2018-06-03T09:30:09.359Z,8736
2018-06-03T09:31:09.096Z,9016
2018-06-03T09:32:09.079Z,9228
2018-06-03T09:33:09.090Z,9568
2018-06-03T09:34:09.347Z,10388
2018-06-03T09:35:08.886Z,11760
2018-06-03T09:36:08.796Z,17120
2018-06-03T09:37:09.326Z,22176
2018-06-03T09:38:09.041Z,18560
2018-06-03T09:39:09.040Z,20832
2018-06-03T09:40:09.043Z,19168
2018-06-03T09:41:09.034Z,18240
2018-06-03T09:42:09.261Z,19168
2018-06-03T09:43:09.282Z,19200
2018-06-03T09:44:08.747Z,23360
2018-06-03T09:45:08.754Z,20992
2018-06-03T09:46:09.008Z,21312
2018-06-03T09:47:09.255Z,20896
2018-06-03T09:48:09.147Z,22016
2018-06-03T09:49:08.719Z,16744
2018-06-03T09:50:08.459Z,14432
2018-06-03T09:51:08.712Z,13096
2018-06-03T09:52:09.239Z,13128
2018-06-03T09:53:09.479Z,14208
2018-06-03T09:54:08.441Z,16232
2018-06-03T09:55:08.680Z,15176
2018-06-03T09:56:08.949Z,13284
2018-06-03T09:57:08.685Z,13412
2018-06-03T09:58:08.672Z,14820
2018-06-03T09:59:08.940Z,20288
2018-06-03T10:00:08.655Z,20640
2018-06-03T10:01:08.925Z,24256
2018-06-03T10:02:08.660Z,21280
2018-06-03T10:03:08.649Z,21312
2018-06-03T10:04:08.643Z,21344
2018-06-03T10:05:08.636Z,19392
2018-06-03T10:06:08.896Z,17952
2018-06-03T10:07:08.910Z,16448
2018-06-03T10:08:08.890Z,15604
2018-06-03T10:09:09.171Z,15940
2018-06-03T10:10:08.926Z,17312
2018-06-03T10:11:08.865Z,24544
2018-06-03T10:12:08.871Z,39136
2018-06-03T10:13:09.135Z,36608
2018-06-03T10:14:08.857Z,72384
2018-06-03T10:15:09.119Z,77216
2018-06-03T10:16:09.019Z,70944
2018-06-03T10:17:08.839Z,52032
2018-06-03T10:18:08.586Z,35136
2018-06-03T10:19:08.841Z,29472
2018-06-03T10:20:08.852Z,24480
2018-06-03T10:21:09.115Z,18912
2018-06-03T10:22:08.841Z,24512
2018-06-03T10:23:08.910Z,20032
2018-06-03T10:24:08.554Z,17088
2018-06-03T10:25:08.817Z,15972
2018-06-03T10:26:08.820Z,15428
2018-06-03T10:27:09.155Z,13972
2018-06-03T10:28:08.553Z,13960
2018-06-03T10:29:09.097Z,13872
2018-06-03T10:30:08.805Z,13804
2018-06-03T10:31:08.534Z,14416
2018-06-03T10:32:08.532Z,14256
2018-06-03T10:33:08.795Z,13116
2018-06-03T10:34:08.894Z,13108
2018-06-03T10:35:08.254Z,14100
2018-06-03T10:36:08.513Z,13832
2018-06-03T10:37:08.779Z,13788
2018-06-03T10:38:08.773Z,14024
2018-06-03T10:39:09.037Z,14352
2018-06-03T10:40:08.813Z,14672
2018-06-03T10:41:08.691Z,15216
2018-06-03T10:42:08.493Z,19552
2018-06-03T10:43:08.220Z,23072
2018-06-03T10:44:09.031Z,15872
2018-06-03T10:45:09.025Z,15468
2018-06-03T10:46:08.476Z,15328
2018-06-03T10:47:09.000Z,15328
2018-06-03T10:48:08.728Z,15480
2018-06-03T10:49:08.992Z,15388
2018-06-03T10:50:08.987Z,15520
2018-06-03T10:51:08.453Z,15884
2018-06-03T10:52:08.972Z,16800
2018-06-03T10:53:08.970Z,17920
2018-06-03T10:54:08.439Z,19200
2018-06-03T10:55:08.430Z,20576
2018-06-03T10:56:08.430Z,22336
2018-06-03T10:57:08.952Z,25120
2018-06-03T10:58:08.686Z,29696
2018-06-03T10:59:08.685Z,33568
2018-06-03T11:00:08.958Z,39552
2018-06-03T11:01:08.411Z,39488
2018-06-03T11:02:08.400Z,40736
2018-06-03T11:03:08.659Z,53984
2018-06-03T11:04:08.654Z,41376
2018-06-03T11:05:08.384Z,53216
2018-06-03T11:06:08.917Z,86656
2018-06-03T11:07:08.917Z,38464
2018-06-03T11:08:08.913Z,44128
2018-06-03T11:09:08.376Z,48928
2018-06-03T11:10:08.108Z,45888
2018-06-03T11:11:08.367Z,43456
2018-06-03T11:12:08.632Z,33696
2018-06-03T11:13:08.641Z,38848
2018-06-03T11:14:08.375Z,40672
2018-06-03T11:15:08.353Z,34912
2018-06-03T11:16:08.368Z,40576
2018-06-03T11:17:08.364Z,20320
2018-06-03T11:18:08.616Z,14512
2018-06-03T11:19:08.890Z,12084
2018-06-03T11:20:08.887Z,10604
2018-06-03T11:21:08.349Z,9832
2018-06-03T11:22:08.341Z,9532
2018-06-03T11:23:08.626Z,9392
2018-06-03T11:24:08.662Z,9360
2018-06-03T11:25:08.883Z,9360
2018-06-03T11:26:08.892Z,9364
2018-06-03T11:27:08.345Z,9480
2018-06-03T11:28:08.613Z,9604
2018-06-03T11:29:08.604Z,9740
2018-06-03T11:30:08.331Z,9936
2018-06-03T11:31:08.597Z,10160
2018-06-03T11:32:08.868Z,10312
2018-06-03T11:33:08.585Z,10408
2018-06-03T11:34:08.316Z,10404
2018-06-03T11:35:08.316Z,10424
2018-06-03T11:36:08.596Z,10464
2018-06-03T11:37:08.369Z,10556
2018-06-03T11:38:08.838Z,10724
2018-06-03T11:39:08.301Z,10980
2018-06-03T11:40:08.559Z,11280
2018-06-03T11:41:08.834Z,11608
2018-06-03T11:42:09.058Z,11912
2018-06-03T11:43:08.018Z,12100
2018-06-03T11:44:40.644Z,12400
2018-06-03T11:45:08.813Z,12536
2018-06-03T11:46:08.560Z,12904
2018-06-03T11:47:08.541Z,13264
2018-06-03T11:48:08.266Z,13604
2018-06-03T11:49:08.533Z,13980
2018-06-03T11:50:08.260Z,14400
2018-06-03T11:51:08.255Z,14940
2018-06-03T11:52:08.249Z,15592
2018-06-03T11:53:08.507Z,16384
2018-06-03T11:54:08.514Z,17088
2018-06-03T11:55:08.248Z,17568
2018-06-03T11:56:08.242Z,17824
2018-06-03T11:57:08.758Z,19296
2018-06-03T11:58:08.513Z,18208
2018-06-03T11:59:08.580Z,18880
2018-06-03T12:00:08.215Z,25792
2018-06-03T12:01:08.733Z,25248
2018-06-03T12:02:08.471Z,37888
2018-06-03T12:03:07.935Z,30368
2018-06-03T12:04:08.464Z,23808
2018-06-03T12:05:08.733Z,24608
2018-06-03T12:06:08.189Z,29216
2018-06-03T12:07:08.458Z,28384
2018-06-03T12:08:08.534Z,26560
2018-06-03T12:09:08.447Z,26528
2018-06-03T12:10:08.184Z,32928
2018-06-03T12:11:08.700Z,33760
2018-06-03T12:12:08.175Z,32288
2018-06-03T12:13:08.433Z,32544
2018-06-03T12:14:08.427Z,40608
2018-06-03T12:15:08.454Z,53920
2018-06-03T12:16:08.420Z,56448
2018-06-03T12:17:08.419Z,78240
2018-06-03T12:18:08.420Z,80704
2018-06-03T12:19:08.683Z,83520
2018-06-03T12:20:08.688Z,87840
2018-06-03T12:21:08.148Z,86560
2018-06-03T12:22:08.674Z,82208
2018-06-03T12:23:08.421Z,72896
2018-06-03T12:24:08.418Z,50976
2018-06-03T12:25:08.148Z,34272
2018-06-03T12:26:08.144Z,27936
2018-06-03T12:27:08.420Z,27072
2018-06-03T12:28:08.417Z,33440
2018-06-03T12:29:08.149Z,46208
2018-06-03T12:30:08.149Z,54240
2018-06-03T12:31:08.417Z,59008
2018-06-03T12:32:08.678Z,49984
2018-06-03T12:33:08.156Z,48544
2018-06-03T12:34:08.156Z,54464
2018-06-03T12:35:08.717Z,64544
2018-06-03T12:36:08.901Z,70624
2018-06-03T12:37:08.434Z,81024
2018-06-03T12:38:08.452Z,81600
2018-06-03T12:39:08.714Z,81376
2018-06-03T12:40:08.444Z,81056
2018-06-03T12:41:08.927Z,83808
2018-06-03T12:42:08.707Z,77920
2018-06-03T12:43:08.451Z,73120
2018-06-03T12:44:08.446Z,60960
2018-06-03T12:45:08.460Z,68448
2018-06-03T12:46:08.463Z,76800
2018-06-03T12:47:08.473Z,77056
2018-06-03T12:48:08.479Z,80544
2018-06-03T12:49:08.742Z,80032
2018-06-03T12:50:08.482Z,76128
2018-06-03T12:51:08.494Z,68000
2018-06-03T12:52:08.217Z,73376
2018-06-03T12:53:08.492Z,70496
2018-06-03T12:54:08.253Z,22752
2018-06-03T12:55:08.501Z,18144
2018-06-03T12:56:08.515Z,18464
2018-06-03T12:57:08.239Z,18944
2018-06-03T12:58:08.788Z,19040
2018-06-03T12:59:08.797Z,20608
2018-06-03T13:00:08.528Z,24320
2018-06-03T13:01:08.535Z,59456
2018-06-03T13:02:08.278Z,83872
2018-06-03T13:03:08.012Z,87744
2018-06-03T13:04:08.826Z,85216
2018-06-03T13:05:08.813Z,84640
2018-06-03T13:06:08.282Z,82880
2018-06-03T13:07:08.549Z,81120
2018-06-03T13:08:08.831Z,82880
2018-06-03T13:09:08.298Z,84960
2018-06-03T13:10:08.836Z,87072
2018-06-03T13:11:08.578Z,87584
2018-06-03T13:12:08.311Z,84416
2018-06-03T13:13:08.349Z,79296
2018-06-03T13:14:08.600Z,75264
2018-06-03T13:15:08.331Z,71776
2018-06-03T13:16:08.642Z,71264
2018-06-03T13:17:08.609Z,68608
2018-06-03T13:18:08.390Z,67264
2018-06-03T13:19:08.729Z,70016
2018-06-03T13:20:08.621Z,72832
2018-06-03T13:21:08.359Z,74368
2018-06-03T13:22:08.095Z,74848
2018-06-03T13:23:08.912Z,74976
2018-06-03T13:24:08.913Z,74880
2018-06-03T13:25:08.650Z,75904
2018-06-03T13:26:08.704Z,74656
2018-06-03T13:27:08.937Z,69952
2018-06-03T13:28:08.397Z,20384
2018-06-03T13:29:08.679Z,16300